Time;durP1;ratioP1;P1;durP2;ratioP2;P2;SDS_P1;SDS_P2;PMS_P1;PMS_P2;Temp;Humidity;BMP_temperature;BMP_pressure;BME280_temperature;BME280_humidity;BME280_pressure;Samples;Min_cycle;Max_cycle;Signal;HPM_P1;HPM_P2
2023/04/23 00:00:12;;;;;;;1.42;0.77;;;;;;;;;;5036968;28;20033;-82
2023/04/23 00:02:38;;;;;;;2.65;1.15;;;;;;;;;;5027264;28;20124;-82
2023/04/23 00:05:05;;;;;;;2.65;1.00;;;;;;;;;;5036905;28;20024;-82
2023/04/23 00:07:33;;;;;;;3.03;1.77;;;;;;;;;;5033621;28;20123;-80
2023/04/23 00:09:59;;;;;;;1.65;1.13;;;;;;;;;;5039012;28;20025;-84
2023/04/23 00:12:26;;;;;;;2.92;1.20;;;11.70;99.90;;;;;;5032058;28;20241;-79
2023/04/23 00:14:53;;;;;;;2.20;1.30;;;;;;;;;;5037182;28;20033;-81
2023/04/23 00:17:19;;;;;;;2.55;1.55;;;;;;;;;;5041299;28;20503;-81
2023/04/23 00:19:46;;;;;;;2.25;0.88;;;;;;;;;;5037596;28;20037;-80
2023/04/23 00:22:19;;;;;;;1.35;0.75;;;;;;;;;;5040082;28;20105;-82
2023/04/23 00:24:45;;;;;;;;;;;;;;;;;;5043504;28;20856;-81
2023/04/23 00:27:11;;;;;;;2.58;1.38;;;;;;;;;;5031198;28;20265;-81
2023/04/23 00:29:37;;;;;;;1.75;1.27;;;;;;;;;;5041108;28;20031;-82
2023/04/23 00:32:03;;;;;;;1.92;0.88;;;;;;;;;;5033115;28;20033;-82
2023/04/23 00:34:28;;;;;;;2.42;0.98;;;11.60;99.90;;;;;;5042551;28;20036;-83
2023/04/23 00:36:54;;;;;;;2.50;0.93;;;;;;;;;;5045328;28;20032;-81
2023/04/23 00:39:21;;;;;;;2.08;1.50;;;;;;;;;;5042751;28;20025;-81
2023/04/23 00:41:47;;;;;;;3.35;1.80;;;;;;;;;;5039888;28;20052;-82
2023/04/23 00:44:13;;;;;;;7.78;1.45;;;;;;;;;;5041897;28;20021;-82
2023/04/23 00:46:39;;;;;;;3.35;1.27;;;;;;;;;;5046448;28;20044;-83
2023/04/23 00:49:05;;;;;;;4.97;1.48;;;;;;;;;;5041222;28;20030;-82
2023/04/23 00:51:31;;;;;;;2.40;1.27;;;;;;;;;;5039721;28;21410;-82
2023/04/23 00:53:57;;;;;;;6.05;1.40;;;;;;;;;;5039595;28;20035;-82
2023/04/23 00:56:24;;;;;;;2.70;1.40;;;;;;;;;;5030239;28;20029;-82
2023/04/23 00:58:51;;;;;;;3.88;1.50;;;;;;;;;;5027849;28;20038;-82
2023/04/23 01:01:19;;;;;;;3.30;1.25;;;;;;;;;;5033356;28;20518;-83
2023/04/23 01:03:47;;;;;;;4.10;1.48;;;11.30;99.90;;;;;;5024586;28;20040;-82
2023/04/23 01:06:13;;;;;;;3.15;1.45;;;;;;;;;;5032168;28;20040;-81
2023/04/23 01:08:40;;;;;;;3.67;1.45;;;;;;;;;;5037846;28;20143;-81
2023/04/23 01:11:06;;;;;;;2.78;1.20;;;;;;;;;;5037672;28;20485;-81
2023/04/23 01:13:32;;;;;;;3.25;1.67;;;;;;;;;;5028499;28;20095;-81
2023/04/23 01:15:58;;;;;;;2.17;1.33;;;;;;;;;;5032978;28;20037;-82
2023/04/23 01:18:25;;;;;;;2.10;1.20;;;;;;;;;;5024574;28;20025;-80
2023/04/23 01:20:52;;;;;;;2.53;1.30;;;;;;;;;;5031132;28;20109;-80
2023/04/23 01:23:18;;;;;;;2.47;1.48;;;;;;;;;;5038712;28;20038;-83
2023/04/23 01:25:44;;;;;;;3.13;1.77;;;;;;;;;;5042836;28;20151;-82
2023/04/23 01:28:10;;;;;;;3.17;1.48;;;;;;;;;;5028410;28;20143;-81
2023/04/23 01:30:36;;;;;;;2.40;1.42;;;;;;;;;;5031491;28;20370;-84
2023/04/23 01:33:05;;;;;;;2.95;1.45;;;;;;;;;;5030512;28;20460;-82
2023/04/23 01:35:31;;;;;;;2.22;1.08;;;;;;;;;;5043952;28;20028;-82
2023/04/23 01:37:58;;;;;;;2.83;1.23;;;;;;;;;;5037644;28;20037;-83
2023/04/23 01:40:24;;;;;;;2.50;1.20;;;;;;;;;;5030210;28;20088;-81
2023/04/23 01:42:50;;;;;;;2.05;0.95;;;11.80;99.90;;;;;;5034046;28;20419;-83
2023/04/23 01:45:19;;;;;;;1.92;1.00;;;;;;;;;;5033202;28;20154;-82
2023/04/23 01:47:46;;;;;;;2.03;1.27;;;;;;;;;;5031028;28;20040;-83
2023/04/23 01:50:12;;;;;;;3.70;2.00;;;;;;;;;;5032925;28;20072;-83
2023/04/23 01:52:39;;;;;;;4.60;1.65;;;;;;;;;;5036895;28;20060;-83
2023/04/23 01:55:05;;;;;;;3.38;1.77;;;;;;;;;;5035691;28;20025;-83
2023/04/23 01:57:31;;;;;;;4.72;2.35;;;;;;;;;;5056667;28;20090;-82
2023/04/23 02:00:07;;;;;;;4.15;2.33;;;;;;;;;;5051616;28;20028;-82
2023/04/23 02:02:33;;;;;;;4.78;2.10;;;;;;;;;;5054692;28;20109;-83
2023/04/23 02:05:02;;;;;;;5.05;2.65;;;;;;;;;;5051072;28;20124;-84
2023/04/23 02:07:27;;;;;;;3.55;1.85;;;12.10;99.90;;;;;;5044848;28;20043;-82
2023/04/23 02:09:53;;;;;;;4.53;2.25;;;;;;;;;;5036905;28;20025;-83
2023/04/23 02:12:19;;;;;;;4.00;2.30;;;;;;;;;;5035312;28;20037;-82
2023/04/23 02:14:45;;;;;;;4.13;2.17;;;;;;;;;;5034684;28;20031;-81
2023/04/23 02:17:11;;;;;;;7.65;2.60;;;;;;;;;;5039341;28;20033;-81
2023/04/23 02:19:37;;;;;;;3.08;1.90;;;;;;;;;;5055255;28;20028;-82
2023/04/23 02:22:03;;;;;;;4.20;1.75;;;;;;;;;;5047846;28;20044;-82
2023/04/23 02:24:29;;;;;;;3.40;1.50;;;;;;;;;;5034352;28;20041;-81
2023/04/23 02:26:56;;;;;;;5.43;2.22;;;;;;;;;;5050173;28;20028;-82
2023/04/23 02:29:22;;;;;;;1.95;1.13;;;;;;;;;;5036830;28;20051;-82
2023/04/23 02:31:48;;;;;;;2.95;1.40;;;;;;;;;;5026675;28;20033;-83
2023/04/23 02:34:14;;;;;;;2.25;1.10;;;;;;;;;;5033088;28;20026;-82
2023/04/23 02:36:40;;;;;;;2.22;1.50;;;;;;;;;;5035873;28;20462;-82
2023/04/23 02:39:06;;;;;;;1.75;0.95;;;;;;;;;;5035679;28;20029;-82
2023/04/23 02:41:32;;;;;;;2.88;1.27;;;;;;;;;;5032340;28;20025;-81
2023/04/23 02:43:58;;;;;;;2.40;1.10;;;;;;;;;;5035889;28;20040;-82
2023/04/23 02:46:24;;;;;;;3.08;1.55;;;12.10;99.90;;;;;;5049701;28;20097;-82
2023/04/23 02:48:50;;;;;;;2.58;1.52;;;;;;;;;;5045334;28;20411;-82
2023/04/23 02:51:16;;;;;;;3.75;1.10;;;;;;;;;;5043523;28;20071;-82
2023/04/23 02:53:42;;;;;;;3.15;1.52;;;;;;;;;;5031086;28;20107;-81
2023/04/23 02:56:08;;;;;;;3.38;1.55;;;;;;;;;;5038729;28;20187;-82
2023/04/23 02:58:34;;;;;;;3.65;1.55;;;12.00;99.90;;;;;;5021348;28;20460;-81
2023/04/23 03:01:00;;;;;;;5.25;1.70;;;;;;;;;;5051890;28;20119;-82
2023/04/23 03:03:30;;;;;;;4.68;1.58;;;;;;;;;;5042295;28;20115;-82
2023/04/23 03:05:56;;;;;;;4.70;1.60;;;;;;;;;;5046265;28;21935;-81
2023/04/23 03:08:22;;;;;;;3.03;1.67;;;;;;;;;;5033415;28;20112;-81
2023/04/23 03:10:48;;;;;;;3.42;1.83;;;;;;;;;;5028299;28;20037;-82
2023/04/23 03:13:14;;;;;;;5.35;2.30;;;12.40;99.90;;;;;;5032288;28;20025;-82
2023/04/23 03:15:40;;;;;;;3.38;1.73;;;;;;;;;;5048882;28;20035;-81
2023/04/23 03:18:07;;;;;;;3.35;1.27;;;;;;;;;;5034530;28;20029;-81
2023/04/23 03:20:33;;;;;;;3.65;1.92;;;;;;;;;;5044306;28;20143;-82
2023/04/23 03:22:59;;;;;;;4.10;1.20;;;;;;;;;;5034242;28;20133;-82
2023/04/23 03:25:25;;;;;;;3.72;1.83;;;;;;;;;;5048354;28;20124;-81
2023/04/23 03:27:51;;;;;;;2.85;1.65;;;;;;;;;;5045074;28;20392;-82
2023/04/23 03:30:18;;;;;;;3.38;1.83;;;;;;;;;;5037915;28;20036;-81
2023/04/23 03:32:44;;;;;;;5.22;1.80;;;;;;;;;;5031407;28;20473;-82
2023/04/23 03:35:10;;;;;;;3.05;1.90;;;12.10;99.90;;;;;;5038625;28;20033;-81
2023/04/23 03:37:36;;;;;;;5.10;1.73;;;;;;;;;;5041994;28;20033;-81
2023/04/23 03:40:06;;;;;;;2.90;1.42;;;;;;;;;;5043610;28;20033;-82
2023/04/23 03:42:32;;;;;;;9.88;2.03;;;;;;;;;;5038460;28;21165;-82
2023/04/23 03:44:58;;;;;;;5.15;1.67;;;;;;;;;;5031279;28;20037;-81
2023/04/23 03:47:24;;;;;;;3.78;2.00;;;;;;;;;;5038971;28;20473;-81
2023/04/23 03:49:50;;;;;;;3.95;1.58;;;;;;;;;;5040537;28;20029;-82
2023/04/23 03:52:16;;;;;;;3.25;1.63;;;;;;;;;;5028716;28;20056;-82
2023/04/23 03:54:42;;;;;;;8.50;1.67;;;;;;;;;;5049767;28;20112;-81
2023/04/23 03:57:08;;;;;;;4.80;2.05;;;;;;;;;;5045205;28;20041;-81
2023/04/23 03:59:34;;;;;;;5.25;1.80;;;;;;;;;;5036985;28;20024;-80
2023/04/23 04:02:03;;;;;;;5.20;2.13;;;;;;;;;;5033159;28;20037;-82
2023/04/23 04:04:29;;;;;;;4.07;1.88;;;;;;;;;;5026618;28;20029;-82
2023/04/23 04:06:55;;;;;;;4.05;2.33;;;;;;;;;;5045183;28;20072;-81
2023/04/23 04:09:21;;;;;;;4.50;2.53;;;;;;;;;;5047896;28;20112;-81
2023/04/23 04:11:47;;;;;;;4.53;2.38;;;;;;;;;;5038991;28;20480;-81
2023/04/23 04:14:13;;;;;;;3.03;1.70;;;;;;;;;;5047393;28;20029;-82
2023/04/23 04:16:40;;;;;;;3.85;2.05;;;;;;;;;;5053053;28;20029;-81
2023/04/23 04:19:06;;;;;;;3.83;1.75;;;;;;;;;;5038038;28;20041;-82
2023/04/23 04:21:32;;;;;;;3.85;2.35;;;;;;;;;;5052004;28;20029;-82
2023/04/23 04:24:00;;;;;;;4.10;2.42;;;;;;;;;;5045781;28;20029;-81
2023/04/23 04:26:26;;;;;;;5.47;3.20;;;;;;;;;;5047374;28;20044;-80
2023/04/23 04:28:53;;;;;;;2.72;2.13;;;;;;;;;;5041910;28;20178;-79
2023/04/23 04:31:22;;;;;;;6.35;2.60;;;;;;;;;;5052946;28;20028;-81
2023/04/23 04:33:47;;;;;;;5.57;2.38;;;12.50;99.90;;;;;;5040148;28;20134;-81
2023/04/23 04:36:13;;;;;;;5.50;2.85;;;;;;;;;;5046981;28;21722;-81
2023/04/23 04:38:40;;;;;;;3.47;1.85;;;;;;;;;;5031714;28;20033;-80
2023/04/23 04:41:06;;;;;;;3.85;2.60;;;;;;;;;;5048873;28;20083;-82
2023/04/23 04:43:33;;;;;;;3.92;2.17;;;;;;;;;;5031177;28;20038;-82
2023/04/23 04:45:59;;;;;;;4.55;2.20;;;;;;;;;;5034654;28;20029;-83
2023/04/23 04:48:26;;;;;;;3.75;2.20;;;;;;;;;;5035359;28;20025;-81
2023/04/23 04:50:52;;;;;;;3.85;2.53;;;;;;;;;;5031424;28;20033;-81
2023/04/23 04:53:17;;;;;;;5.90;3.25;;;;;;;;;;5052777;28;20454;-81
2023/04/23 04:55:43;;;;;;;3.72;2.17;;;;;;;;;;5051715;28;20104;-82
2023/04/23 04:58:09;;;;;;;5.88;2.10;;;;;;;;;;5029755;28;20253;-83
2023/04/23 05:00:36;;;;;;;4.10;1.83;;;;;;;;;;5035700;28;20078;-82
2023/04/23 05:03:03;;;;;;;3.88;1.65;;;;;;;;;;5049701;28;20045;-82
2023/04/23 05:05:29;;;;;;;3.28;1.88;;;;;;;;;;5031181;28;20031;-83
2023/04/23 05:07:58;;;;;;;3.25;2.28;;;;;;;;;;5055148;28;20028;-81
2023/04/23 05:10:24;;;;;;;3.03;2.05;;;;;;;;;;5046992;28;20481;-81
2023/04/23 05:12:50;;;;;;;12.48;3.28;;;;;;;;;;5016512;28;20053;-83
2023/04/23 05:15:16;;;;;;;8.27;2.30;;;;;;;;;;5036845;28;20029;-82
2023/04/23 05:17:42;;;;;;;5.25;2.13;;;;;;;;;;5047520;28;20028;-83
2023/04/23 05:20:09;;;;;;;5.45;2.20;;;;;;;;;;5024303;28;20025;-83
2023/04/23 05:22:38;;;;;;;7.47;1.85;;;;;;;;;;5027968;28;20055;-81
2023/04/23 05:25:05;;;;;;;4.82;2.15;;;;;;;;;;5043754;28;20025;-82
2023/04/23 05:27:31;;;;;;;4.07;2.53;;;;;;;;;;5047131;28;20187;-81
2023/04/23 05:29:58;;;;;;;3.33;1.98;;;;;;;;;;5035880;28;20564;-83
2023/04/23 05:32:24;;;;;;;6.18;2.10;;;;;;;;;;5032442;28;20036;-82
2023/04/23 05:34:50;;;;;;;3.80;2.35;;;;;;;;;;5041631;28;20029;-82
2023/04/23 05:37:16;;;;;;;6.15;2.67;;;;;;;;;;5041536;28;20047;-83
2023/04/23 05:39:42;;;;;;;3.83;1.95;;;;;;;;;;5034348;28;20029;-80
2023/04/23 05:42:08;;;;;;;5.25;2.33;;;;;;;;;;5045236;28;20041;-81
2023/04/23 05:44:34;;;;;;;3.15;2.22;;;;;;;;;;5038219;28;20025;-82
2023/04/23 05:47:00;;;;;;;3.50;1.77;;;;;;;;;;5043029;28;20034;-84
2023/04/23 05:49:26;;;;;;;4.43;2.20;;;;;;;;;;5043728;28;20508;-82
2023/04/23 05:51:52;;;;;;;2.55;2.13;;;;;;;;;;5031494;28;20026;-81
2023/04/23 05:54:18;;;;;;;2.05;1.05;;;;;;;;;;5037762;28;20039;-82
2023/04/23 05:56:44;;;;;;;4.50;1.38;;;;;;;;;;5032275;28;20063;-83
2023/04/23 05:59:10;;;;;;;4.82;2.58;;;;;;;;;;5034820;28;20178;-83
2023/04/23 06:01:37;;;;;;;11.27;4.75;;;;;;;;;;5040380;28;20029;-81
2023/04/23 06:04:03;;;;;;;13.88;4.72;;;;;;;;;;5036760;28;20037;-82
2023/04/23 06:06:30;;;;;;;4.53;2.13;;;;;;;;;;5036067;28;20017;-83
2023/04/23 06:08:56;;;;;;;3.17;1.63;;;;;;;;;;5041750;28;20491;-81
2023/04/23 06:11:22;;;;;;;3.83;1.65;;;;;;;;;;5036664;28;20053;-83
2023/04/23 06:13:48;;;;;;;2.28;0.95;;;;;;;;;;5032199;28;20032;-82
2023/04/23 06:16:14;;;;;;;1.60;0.90;;;;;;;;;;5029506;28;20921;-82
2023/04/23 06:18:40;;;;;;;2.30;1.35;;;;;;;;;;5041962;28;20025;-82
2023/04/23 06:21:06;;;;;;;3.33;1.65;;;;;;;;;;5032224;28;20035;-82
2023/04/23 06:23:32;;;;;;;3.90;1.02;;;;;;;;;;5032608;28;20079;-80
2023/04/23 06:25:59;;;;;;;1.73;1.17;;;;;;;;;;5042654;28;20028;-82
2023/04/23 06:28:25;;;;;;;2.97;1.52;;;;;;;;;;5019717;28;20040;-83
2023/04/23 06:30:51;;;;;;;15.48;6.53;;;;;;;;;;5028297;28;20025;-81
2023/04/23 06:33:18;;;;;;;15.60;5.53;;;;;;;;;;5022557;28;20025;-82
2023/04/23 06:35:45;;;;;;;9.60;4.22;;;;;;;;;;5039284;28;20033;-83
2023/04/23 06:38:11;;;;;;;4.72;1.65;;;;;;;;;;5034564;28;20929;-81
2023/04/23 06:40:37;;;;;;;3.38;0.70;;;;;;;;;;5038715;28;20030;-82
2023/04/23 06:43:04;;;;;;;2.15;0.85;;;;;;;;;;5041737;28;20049;-82
2023/04/23 06:45:34;;;;;;;2.13;0.80;;;;;;;;;;5039616;28;20025;-83
2023/04/23 06:48:00;;;;;;;2.10;0.73;;;;;;;;;;5034550;28;20395;-83
2023/04/23 06:50:26;;;;;;;2.38;1.15;;;;;;;;;;5025033;28;20632;-85
2023/04/23 06:52:52;;;;;;;1.98;1.40;;;;;;;;;;5033100;28;20033;-84
2023/04/23 06:55:19;;;;;;;2.92;1.15;;;;;;;;;;5026308;28;20033;-83
2023/04/23 06:57:45;;;;;;;1.10;0.70;;;;;;;;;;5041500;28;20127;-84
2023/04/23 07:00:12;;;;;;;1.73;0.85;;;;;;;;;;5050140;28;20746;-82
2023/04/23 07:02:38;;;;;;;2.38;0.80;;;;;;;;;;5039502;28;20041;-82
2023/04/23 07:05:04;;;;;;;0.77;0.60;;;;;;;;;;5029842;28;20045;-81
2023/04/23 07:07:30;;;;;;;2.08;0.70;;;;;;;;;;5033301;28;20483;-82
2023/04/23 07:09:56;;;;;;;2.22;0.80;;;;;;;;;;5042122;28;20071;-81
2023/04/23 07:12:22;;;;;;;1.08;0.60;;;;;;;;;;5045865;28;20029;-83
2023/04/23 07:14:48;;;;;;;1.20;0.93;;;;;;;;;;5036512;28;20040;-81
2023/04/23 07:17:14;;;;;;;1.45;0.75;;;;;;;;;;5026330;28;20037;-82
2023/04/23 07:19:41;;;;;;;2.63;1.10;;;;;;;;;;5034261;28;20107;-81
2023/04/23 07:22:07;;;;;;;4.63;1.00;;;;;;;;;;5033844;28;20088;-81
2023/04/23 07:24:33;;;;;;;1.05;0.60;;;;;;;;;;5025465;28;20033;-81
2023/04/23 07:26:59;;;;;;;2.63;0.88;;;;;;;;;;5028151;28;20412;-81
2023/04/23 07:29:25;;;;;;;4.05;1.00;;;;;;;;;;5027528;28;20151;-82
2023/04/23 07:31:51;;;;;;;2.50;0.80;;;;;;;;;;5028705;28;21470;-82
2023/04/23 07:34:17;;;;;;;1.42;0.60;;;;;;;;;;5032950;28;20028;-82
2023/04/23 07:36:43;;;;;;;1.48;0.60;;;;;;;;;;5051742;28;20510;-82
2023/04/23 07:39:09;;;;;;;4.85;0.85;;;;;;;;;;5044828;28;20032;-81
2023/04/23 07:41:36;;;;;;;2.35;0.40;;;15.90;99.90;;;;;;5051058;28;20033;-83
2023/04/23 07:44:02;;;;;;;1.58;0.90;;;;;;;;;;5047555;28;20045;-82
2023/04/23 07:46:28;;;;;;;3.28;0.40;;;;;;;;;;5037509;28;20295;-82
2023/04/23 07:48:54;;;;;;;1.27;0.60;;;;;;;;;;5031693;28;21005;-81
2023/04/23 07:51:21;;;;;;;1.88;0.93;;;;;;;;;;5032228;28;20049;-81
2023/04/23 07:53:50;;;;;;;1.33;0.60;;;;;;;;;;5051045;28;20029;-81
2023/04/23 07:56:16;;;;;;;2.13;0.68;;;;;;;;;;5055910;28;20118;-81
2023/04/23 07:58:42;;;;;;;3.22;0.73;;;;;;;;;;5047860;28;20397;-80
2023/04/23 08:01:08;;;;;;;1.38;0.75;;;;;;;;;;5040934;28;21059;-80
2023/04/23 08:03:34;;;;;;;1.20;0.57;;;;;;;;;;5032076;28;20032;-81
2023/04/23 08:06:00;;;;;;;1.40;0.50;;;;;;;;;;5046628;28;20036;-81
2023/04/23 08:08:26;;;;;;;3.70;0.55;;;;;;;;;;5030248;28;20036;-81
2023/04/23 08:10:52;;;;;;;0.60;0.40;;;;;;;;;;5038569;28;20115;-80
2023/04/23 08:13:18;;;;;;;1.33;0.63;;;;;;;;;;5034884;28;20031;-79
2023/04/23 08:15:44;;;;;;;1.05;0.30;;;;;;;;;;5033313;28;20068;-82
2023/04/23 08:18:10;;;;;;;2.05;0.93;;;;;;;;;;5030970;28;20159;-82
2023/04/23 08:20:36;;;;;;;1.08;0.57;;;;;;;;;;5031401;28;21308;-81
2023/04/23 08:23:02;;;;;;;1.38;0.60;;;;;;;;;;5031236;28;20038;-81
2023/04/23 08:25:28;;;;;;;0.57;0.38;;;;;;;;;;5033573;28;20025;-81
2023/04/23 08:27:54;;;;;;;2.15;1.15;;;;;;;;;;5027472;28;20033;-80
2023/04/23 08:30:20;;;;;;;2.03;1.00;;;;;;;;;;5037560;28;20029;-81
2023/04/23 08:32:49;;;;;;;1.90;1.23;;;;;;;;;;5036542;28;20032;-81
2023/04/23 08:35:15;;;;;;;1.25;0.70;;;;;;;;;;5030203;28;20492;-82
2023/04/23 08:37:41;;;;;;;0.82;0.57;;;;;;;;;;5045294;28;20069;-83
2023/04/23 08:40:07;;;;;;;3.53;0.80;;;19.50;99.90;;;;;;5049377;28;20021;-81
2023/04/23 08:42:48;;;;;;;1.35;0.85;;;;;;;;;;5037255;28;20028;-81
2023/04/23 08:45:14;;;;;;;1.40;0.68;;;;;;;;;;5040073;28;20017;-81
2023/04/23 08:47:41;;;;;;;1.70;0.70;;;;;;;;;;5024956;28;20043;-82
2023/04/23 08:50:09;;;;;;;2.22;0.70;;;;;;;;;;5046664;28;21605;-82
2023/04/23 08:52:39;;;;;;;1.23;0.50;;;21.10;99.90;;;;;;5044119;28;20032;-81
2023/04/23 08:55:13;;;;;;;1.92;1.00;;;22.00;98.90;;;;;;5046164;28;20029;-82
2023/04/23 08:57:40;;;;;;;1.40;0.55;;;;;;;;;;5019210;28;20035;-81
2023/04/23 09:00:09;;;;;;;2.80;0.90;;;25.60;89.90;;;;;;5033248;28;20047;-80
2023/04/23 09:02:35;;;;;;;1.17;0.68;;;27.00;79.30;;;;;;5036307;28;20646;-79
2023/04/23 09:05:04;;;;;;;1.85;0.70;;;27.70;78.00;;;;;;5041341;28;20041;-80
2023/04/23 09:07:30;;;;;;;0.77;0.50;;;;;;;;;;5039889;28;20036;-81
2023/04/23 09:09:56;;;;;;;3.05;0.65;;;;;;;;;;5033297;28;20021;-82
2023/04/23 09:12:22;;;;;;;1.70;0.65;;;;;;;;;;5026607;28;20037;-81
2023/04/23 09:14:50;;;;;;;1.58;1.08;;;27.30;65.00;;;;;;5031141;28;21355;-82
2023/04/23 09:17:16;;;;;;;1.60;0.52;;;;;;;;;;5015330;28;20071;-82
2023/04/23 09:19:42;;;;;;;0.75;0.50;;;;;;;;;;5049384;28;20025;-80
2023/04/23 09:22:08;;;;;;;0.57;0.38;;;24.20;90.40;;;;;;5047042;28;20045;-81
2023/04/23 09:24:34;;;;;;;0.82;0.50;;;;;;;;;;5034974;28;20040;-80
2023/04/23 09:27:01;;;;;;;2.05;0.80;;;;;;;;;;5033030;28;20033;-80
2023/04/23 09:29:27;;;;;;;2.13;0.82;;;;;;;;;;5025405;28;20032;-81
2023/04/23 09:31:55;;;;;;;2.90;0.85;;;21.40;84.80;;;;;;5030267;28;20029;-82
2023/04/23 09:34:22;;;;;;;3.58;0.75;;;;;;;;;;5023593;28;20108;-80
2023/04/23 09:36:52;;;;;;;1.98;0.90;;;;;;;;;;5031067;28;20401;-80
2023/04/23 09:39:18;;;;;;;0.60;0.50;;;;;;;;;;5029870;28;20033;-81
2023/04/23 09:41:45;;;;;;;0.80;0.57;;;;;;;;;;5053714;28;20032;-80
2023/04/23 09:44:12;;;;;;;0.85;0.50;;;;;;;;;;5039339;28;20049;-81
2023/04/23 09:46:42;;;;;;;1.50;0.63;;;;;;;;;;5038461;28;20094;-81
2023/04/23 09:49:09;;;;;;;1.08;0.52;;;;;;;;;;5031343;28;20049;-80
2023/04/23 09:51:42;;;;;;;0.82;0.50;;;20.00;88.90;;;;;;5036594;28;20033;-81
2023/04/23 09:54:22;;;;;;;3.88;1.05;;;;;;;;;;5027833;28;20040;-81
2023/04/23 09:56:56;;;;;;;0.95;0.63;;;18.70;89.80;;;;;;5030778;28;20033;-78
2023/04/23 09:59:23;;;;;;;0.63;0.30;;;;;;;;;;5025440;28;20029;-81
2023/04/23 10:01:49;;;;;;;1.13;0.70;;;;;;;;;;5020807;28;20045;-82
2023/04/23 10:04:20;;;;;;;0.77;0.47;;;18.80;93.20;;;;;;5021656;28;20371;-80
2023/04/23 10:06:46;;;;;;;2.05;0.80;;;;;;;;;;5034685;28;20489;-80
2023/04/23 10:09:12;;;;;;;0.93;0.68;;;;;;;;;;5031378;28;20029;-82
2023/04/23 10:11:39;;;;;;;0.95;0.52;;;19.20;99.70;;;;;;5041090;28;20410;-80
2023/04/23 10:14:05;;;;;;;1.73;0.40;;;;;;;;;;5033768;28;20572;-81
2023/04/23 10:16:31;;;;;;;0.70;0.30;;;;;;;;;;5027007;28;20579;-82
2023/04/23 10:19:00;;;;;;;3.25;0.40;;;;;;;;;;5030829;28;20178;-84
2023/04/23 10:21:27;;;;;;;1.17;0.60;;;;;;;;;;5032148;28;20089;-82
2023/04/23 10:23:55;;;;;;;0.70;0.40;;;19.80;93.50;;;;;;5020398;28;20029;-83
2023/04/23 10:26:23;;;;;;;1.45;0.38;;;;;;;;;;5032809;28;20030;-80
2023/04/23 10:28:50;;;;;;;1.15;0.60;;;;;;;;;;5030859;28;20033;-80
2023/04/23 10:31:17;;;;;;;0.60;0.30;;;;;;;;;;5027902;28;20033;-83
2023/04/23 10:33:43;;;;;;;1.40;0.47;;;;;;;;;;5039497;28;20480;-80
2023/04/23 10:36:09;;;;;;;0.68;0.30;;;;;;;;;;5034464;28;20405;-82
2023/04/23 10:38:36;;;;;;;1.08;0.50;;;;;;;;;;5023850;28;20401;-82
2023/04/23 10:41:02;;;;;;;0.75;0.40;;;;;;;;;;5021752;28;20411;-81
2023/04/23 10:43:28;;;;;;;0.70;0.30;;;;;;;;;;5028212;28;20034;-82
2023/04/23 10:45:54;;;;;;;1.27;0.50;;;;;;;;;;5020585;28;20154;-81
2023/04/23 10:48:20;;;;;;;1.00;0.45;;;;;;;;;;5027531;28;20052;-82
2023/04/23 10:50:46;;;;;;;1.27;0.50;;;;;;;;;;5026692;28;20032;-82
2023/04/23 10:53:21;;;;;;;2.08;0.98;;;;;;;;;;5030850;28;20104;-81
2023/04/23 10:55:47;;;;;;;0.50;0.30;;;;;;;;;;5032789;28;21240;-80
2023/04/23 10:58:13;;;;;;;1.02;0.40;;;;;;;;;;5036944;28;20040;-83
2023/04/23 11:00:43;;;;;;;0.70;0.43;;;;;;;;;;5029045;28;20032;-81
2023/04/23 11:03:30;;;;;;;0.52;0.25;;;19.70;91.10;;;;;;5039252;28;20124;-81
2023/04/23 11:05:57;;;;;;;0.98;0.40;;;;;;;;;;5038199;28;20087;-81
2023/04/23 11:08:23;;;;;;;0.50;0.22;;;;;;;;;;5043676;28;20485;-81
2023/04/23 11:10:56;;;;;;;0.73;0.47;;;;;;;;;;5024420;28;20025;-82
2023/04/23 11:13:26;;;;;;;1.23;0.50;;;;;;;;;;5036900;28;20063;-82
2023/04/23 11:16:12;;;;;;;1.13;0.40;;;20.90;85.60;;;;;;5032478;28;20032;-82
2023/04/23 11:18:56;;;;;;;1.20;0.40;;;;;;;;;;5020725;28;20066;-81
2023/04/23 11:21:22;;;;;;;0.45;0.20;;;;;;;;;;5026813;28;20364;-82
2023/04/23 11:23:48;;;;;;;2.05;0.38;;;;;;;;;;5021234;28;20596;-82
2023/04/23 11:26:17;;;;;;;1.13;0.20;;;;;;;;;;5049508;28;20022;-81
2023/04/23 11:28:44;;;;;;;0.65;0.25;;;;;;;;;;5048483;28;20025;-81
2023/04/23 11:31:10;;;;;;;1.00;0.40;;;;;;;;;;5058590;28;20037;-81
2023/04/23 11:33:37;;;;;;;0.73;0.38;;;20.90;83.90;;;;;;5049216;28;20040;-81
2023/04/23 11:36:03;;;;;;;0.82;0.40;;;;;;;;;;5043718;28;20025;-82
2023/04/23 11:38:32;;;;;;;0.65;0.30;;;;;;;;;;5039694;28;20026;-81
2023/04/23 11:41:01;;;;;;;1.70;0.75;;;;;;;;;;5041564;28;20033;-81
2023/04/23 11:43:28;;;;;;;0.65;0.38;;;;;;;;;;5039361;28;20361;-81
2023/04/23 11:45:55;;;;;;;1.13;0.30;;;;;;;;;;5051362;28;20485;-82
2023/04/23 11:48:21;;;;;;;1.52;0.30;;;;;;;;;;5044749;28;20033;-80
2023/04/23 11:50:46;;;;;;;2.42;0.63;;;22.00;91.20;;;;;;5039168;28;20028;-80
2023/04/23 11:53:13;;;;;;;0.73;0.35;;;;;;;;;;5047419;28;20044;-81
2023/04/23 11:55:42;;;;;;;0.88;0.32;;;;;;;;;;5046104;28;20021;-80
2023/04/23 11:58:10;;;;;;;0.85;0.45;;;;;;;;;;5034522;28;20490;-82
2023/04/23 12:00:36;;;;;;;0.68;0.30;;;;;;;;;;5036964;28;20029;-81
2023/04/23 12:03:03;;;;;;;0.85;0.20;;;21.50;79.70;;;;;;5045077;28;20064;-82
2023/04/23 12:05:31;;;;;;;1.50;0.43;;;;;;;;;;5049637;28;20029;-81
2023/04/23 12:08:17;;;;;;;0.32;0.20;;;20.80;77.90;;;;;;5039829;28;20032;-81
2023/04/23 12:10:47;;;;;;;0.75;0.20;;;;;;;;;;5040483;28;20496;-83
2023/04/23 12:13:25;;;;;;;0.32;0.20;;;;;;;;;;5044041;28;20028;-82
2023/04/23 12:15:58;;;;;;;2.17;0.57;;;;;;;;;;5044055;28;20029;-80
2023/04/23 12:18:28;;;;;;;2.33;0.52;;;22.00;76.70;;;;;;5040991;28;20033;-80
2023/04/23 12:20:53;;;;;;;1.05;0.40;;;22.00;90.30;;;;;;5037839;28;20653;-80
2023/04/23 12:23:26;;;;;;;0.10;0.10;;;21.50;78.50;;;;;;5043384;28;20037;-81
2023/04/23 12:25:54;;;;;;;0.55;0.22;;;21.20;78.60;;;;;;5043268;28;20244;-82
2023/04/23 12:28:23;;;;;;;0.52;0.20;;;21.90;76.30;;;;;;5035320;28;20029;-80
2023/04/23 12:30:50;;;;;;;0.52;0.30;;;;;;;;;;5045411;28;20681;-83
2023/04/23 12:33:17;;;;;;;1.05;0.32;;;;;;;;;;5043987;28;20138;-81
2023/04/23 12:35:50;;;;;;;0.50;0.20;;;21.30;77.20;;;;;;5045981;28;20028;-79
2023/04/23 12:38:23;;;;;;;0.70;0.28;;;21.20;76.60;;;;;;5039234;28;20091;-81
2023/04/23 12:40:50;;;;;;;0.80;0.35;;;;;;;;;;5041395;28;20041;-81
2023/04/23 12:43:15;;;;;;;0.60;0.40;;;21.60;84.80;;;;;;5037811;28;20048;-80
2023/04/23 12:45:41;;;;;;;1.42;0.30;;;;;;;;;;5042913;28;20025;-82
2023/04/23 12:48:07;;;;;;;0.60;0.20;;;;;;;;;;5046448;28;20087;-80
2023/04/23 12:50:33;;;;;;;1.55;0.52;;;;;;;;;;5038930;28;20069;-81
2023/04/23 12:52:59;;;;;;;1.30;0.40;;;;;;;;;;5045779;28;20520;-82
2023/04/23 12:55:25;;;;;;;0.47;0.30;;;;;;;;;;5048911;28;20025;-82
2023/04/23 12:57:51;;;;;;;0.63;0.30;;;;;;;;;;5039065;28;20167;-82
2023/04/23 13:00:17;;;;;;;1.67;0.40;;;;;;;;;;5039197;28;20036;-80
2023/04/23 13:02:43;;;;;;;1.20;0.45;;;;;;;;;;5043909;28;20135;-81
2023/04/23 13:05:09;;;;;;;0.68;0.32;;;21.50;93.60;;;;;;5047573;28;20527;-81
2023/04/23 13:07:35;;;;;;;0.50;0.20;;;;;;;;;;5045022;28;20524;-83
2023/04/23 13:10:00;;;;;;;0.20;0.20;;;21.80;81.50;;;;;;5040935;28;20505;-81
2023/04/23 13:12:26;;;;;;;0.50;0.30;;;;;;;;;;5048030;28;20061;-83
2023/04/23 13:14:52;;;;;;;2.20;0.80;;;;;;;;;;5038423;28;20048;-81
2023/04/23 13:17:18;;;;;;;0.63;0.30;;;21.10;90.50;;;;;;5048309;28;20025;-81
2023/04/23 13:19:44;;;;;;;2.22;1.08;;;;;;;;;;5036351;28;20029;-83
2023/04/23 13:22:10;;;;;;;0.85;0.32;;;;;;;;;;5049794;28;20062;-81
2023/04/23 13:24:36;;;;;;;2.42;0.60;;;;;;;;;;5052981;28;20024;-82
2023/04/23 13:27:02;;;;;;;1.20;0.40;;;;;;;;;;5037675;28;20460;-82
2023/04/23 13:29:28;;;;;;;0.57;0.22;;;;;;;;;;5036199;28;20128;-82
2023/04/23 13:31:56;;;;;;;3.17;0.60;;;21.10;76.60;;;;;;5047060;28;20025;-81
2023/04/23 13:34:23;;;;;;;0.57;0.20;;;;;;;;;;5047886;28;20105;-82
2023/04/23 13:36:49;;;;;;;0.88;0.35;;;;;;;;;;5062128;28;20048;-82
2023/04/23 13:39:15;;;;;;;1.10;0.10;;;;;;;;;;5068920;28;20025;-83
2023/04/23 13:41:41;;;;;;;0.20;0.10;;;;;;;;;;5052990;28;20303;-81
2023/04/23 13:44:06;;;;;;;0.20;0.17;;;20.80;94.10;;;;;;5049845;28;20025;-82
2023/04/23 13:46:32;;;;;;;0.30;0.10;;;;;;;;;;5034004;28;20400;-81
2023/04/23 13:48:59;;;;;;;0.80;0.20;;;;;;;;;;5023725;28;20128;-80
2023/04/23 13:51:25;;;;;;;0.40;0.20;;;;;;;;;;5028493;28;20129;-84
2023/04/23 13:53:51;;;;;;;0.75;0.30;;;;;;;;;;5031607;28;20120;-84
2023/04/23 13:56:17;;;;;;;0.60;0.38;;;;;;;;;;5021314;28;20496;-83
2023/04/23 13:58:46;;;;;;;0.30;0.15;;;;;;;;;;5030437;28;20138;-83
2023/04/23 14:01:14;;;;;;;0.35;0.20;;;;;;;;;;5036899;28;20522;-82
2023/04/23 14:03:40;;;;;;;0.75;0.25;;;;;;;;;;5039449;28;20075;-83
2023/04/23 14:06:06;;;;;;;0.10;0.10;;;;;;;;;;5043200;28;20025;-80
2023/04/23 14:08:32;;;;;;;3.45;0.20;;;;;;;;;;5034080;28;20117;-80
2023/04/23 14:10:58;;;;;;;0.88;0.20;;;;;;;;;;5042775;28;20025;-82
2023/04/23 14:13:24;;;;;;;0.57;0.20;;;;;;;;;;5035749;28;20122;-81
2023/04/23 14:15:50;;;;;;;0.57;0.20;;;;;;;;;;5032199;28;20449;-84
2023/04/23 14:18:16;;;;;;;1.23;0.50;;;;;;;;;;5040382;28;20045;-81
2023/04/23 14:20:42;;;;;;;1.33;0.45;;;;;;;;;;5045169;28;20043;-80
2023/04/23 14:23:24;;;;;;;0.95;0.25;;;21.70;78.50;;;;;;5030679;28;20049;-81